sensor_id;sensor_type;location;lat;lon;timestamp;temperature;humidity
28336;DHT22;15592;53.656;7.276;2023-01-30T00:01:23;5.90;99.90
28336;DHT22;15592;53.656;7.276;2023-01-30T00:03:48;5.90;99.90
28336;DHT22;15592;53.656;7.276;2023-01-30T00:06:14;5.90;99.90
28336;DHT22;15592;53.656;7.276;2023-01-30T00:08:40;5.90;99.90
28336;DHT22;15592;53.656;7.276;2023-01-30T00:11:07;6.00;99.90
28336;DHT22;15592;53.656;7.276;2023-01-30T00:13:33;6.00;99.90
28336;DHT22;15592;53.656;7.276;2023-01-30T00:15:59;6.00;99.90
28336;DHT22;15592;53.656;7.276;2023-01-30T00:18:25;6.00;99.90
28336;DHT22;15592;53.656;7.276;2023-01-30T00:20:58;6.10;99.90
28336;DHT22;15592;53.656;7.276;2023-01-30T00:23:25;6.10;99.90
28336;DHT22;15592;53.656;7.276;2023-01-30T00:25:51;6.10;99.90
28336;DHT22;15592;53.656;7.276;2023-01-30T00:28:17;6.10;99.90
28336;DHT22;15592;53.656;7.276;2023-01-30T00:30:43;6.10;99.90
28336;DHT22;15592;53.656;7.276;2023-01-30T00:33:09;6.10;99.90
28336;DHT22;15592;53.656;7.276;2023-01-30T00:35:35;6.20;99.90
28336;DHT22;15592;53.656;7.276;2023-01-30T00:38:01;6.20;99.90
28336;DHT22;15592;53.656;7.276;2023-01-30T00:40:27;6.20;99.90
28336;DHT22;15592;53.656;7.276;2023-01-30T00:42:54;6.10;99.90
28336;DHT22;15592;53.656;7.276;2023-01-30T00:45:40;6.20;99.90
28336;DHT22;15592;53.656;7.276;2023-01-30T00:48:24;6.20;99.90
28336;DHT22;15592;53.656;7.276;2023-01-30T00:50:50;6.20;99.90
28336;DHT22;15592;53.656;7.276;2023-01-30T00:53:16;6.10;99.90
28336;DHT22;15592;53.656;7.276;2023-01-30T00:55:41;6.10;99.90
28336;DHT22;15592;53.656;7.276;2023-01-30T00:58:09;6.10;99.90
28336;DHT22;15592;53.656;7.276;2023-01-30T01:00:35;6.10;99.90
28336;DHT22;15592;53.656;7.276;2023-01-30T01:03:01;6.10;99.90
28336;DHT22;15592;53.656;7.276;2023-01-30T01:05:26;6.10;99.90
28336;DHT22;15592;53.656;7.276;2023-01-30T01:07:53;6.10;99.90
28336;DHT22;15592;53.656;7.276;2023-01-30T01:10:18;6.10;99.90
28336;DHT22;15592;53.656;7.276;2023-01-30T01:12:44;6.10;99.90
28336;DHT22;15592;53.656;7.276;2023-01-30T01:15:11;6.00;99.90
28336;DHT22;15592;53.656;7.276;2023-01-30T01:17:38;6.00;99.90
28336;DHT22;15592;53.656;7.276;2023-01-30T01:20:05;6.10;99.90
28336;DHT22;15592;53.656;7.276;2023-01-30T01:22:31;6.00;99.90
28336;DHT22;15592;53.656;7.276;2023-01-30T01:24:56;6.10;99.90
28336;DHT22;15592;53.656;7.276;2023-01-30T01:27:22;6.10;99.90
28336;DHT22;15592;53.656;7.276;2023-01-30T01:29:47;6.00;99.90
28336;DHT22;15592;53.656;7.276;2023-01-30T01:32:13;6.00;99.90
28336;DHT22;15592;53.656;7.276;2023-01-30T01:34:38;6.00;99.90
28336;DHT22;15592;53.656;7.276;2023-01-30T01:37:04;6.00;99.90
28336;DHT22;15592;53.656;7.276;2023-01-30T01:39:29;6.00;99.90
28336;DHT22;15592;53.656;7.276;2023-01-30T01:42:16;6.00;99.90
28336;DHT22;15592;53.656;7.276;2023-01-30T01:48:02;6.10;99.90
28336;DHT22;15592;53.656;7.276;2023-01-30T01:53:14;6.10;99.90
28336;DHT22;15592;53.656;7.276;2023-01-30T01:55:42;6.10;99.90
28336;DHT22;15592;53.656;7.276;2023-01-30T01:58:17;6.10;99.90
28336;DHT22;15592;53.656;7.276;2023-01-30T02:00:45;6.10;99.90
28336;DHT22;15592;53.656;7.276;2023-01-30T02:03:15;6.10;99.90
28336;DHT22;15592;53.656;7.276;2023-01-30T02:05:45;6.20;99.90
28336;DHT22;15592;53.656;7.276;2023-01-30T02:13:19;6.20;99.90
28336;DHT22;15592;53.656;7.276;2023-01-30T02:15:45;6.20;99.90
28336;DHT22;15592;53.656;7.276;2023-01-30T02:18:12;6.10;99.90
28336;DHT22;15592;53.656;7.276;2023-01-30T02:25:52;6.10;99.90
28336;DHT22;15592;53.656;7.276;2023-01-30T02:31:23;6.00;99.90
28336;DHT22;15592;53.656;7.276;2023-01-30T02:36:53;5.90;99.90
28336;DHT22;15592;53.656;7.276;2023-01-30T02:44:54;5.90;99.90
28336;DHT22;15592;53.656;7.276;2023-01-30T02:47:37;5.80;99.90
28336;DHT22;15592;53.656;7.276;2023-01-30T02:50:10;5.80;99.90
28336;DHT22;15592;53.656;7.276;2023-01-30T02:52:37;5.80;99.90
28336;DHT22;15592;53.656;7.276;2023-01-30T02:55:21;5.80;99.90
28336;DHT22;15592;53.656;7.276;2023-01-30T02:57:47;5.80;99.90
28336;DHT22;15592;53.656;7.276;2023-01-30T03:00:16;5.80;99.90
28336;DHT22;15592;53.656;7.276;2023-01-30T03:10:51;5.80;99.90
28336;DHT22;15592;53.656;7.276;2023-01-30T03:13:28;5.80;99.90
28336;DHT22;15592;53.656;7.276;2023-01-30T03:16:04;5.90;99.90
28336;DHT22;15592;53.656;7.276;2023-01-30T03:18:31;5.80;99.90
28336;DHT22;15592;53.656;7.276;2023-01-30T03:21:05;5.80;99.90
28336;DHT22;15592;53.656;7.276;2023-01-30T03:23:31;5.90;99.90
28336;DHT22;15592;53.656;7.276;2023-01-30T03:25:57;5.90;99.90
28336;DHT22;15592;53.656;7.276;2023-01-30T03:28:23;5.90;99.90
28336;DHT22;15592;53.656;7.276;2023-01-30T03:30:49;5.90;99.90
28336;DHT22;15592;53.656;7.276;2023-01-30T03:33:15;5.90;99.90
28336;DHT22;15592;53.656;7.276;2023-01-30T03:35:40;5.90;99.90
28336;DHT22;15592;53.656;7.276;2023-01-30T03:38:07;5.90;99.90
28336;DHT22;15592;53.656;7.276;2023-01-30T03:40:33;5.90;99.90
28336;DHT22;15592;53.656;7.276;2023-01-30T03:42:59;5.90;99.90
28336;DHT22;15592;53.656;7.276;2023-01-30T03:45:24;5.90;99.90
28336;DHT22;15592;53.656;7.276;2023-01-30T03:47:50;5.90;99.90
28336;DHT22;15592;53.656;7.276;2023-01-30T03:50:16;5.90;99.90
28336;DHT22;15592;53.656;7.276;2023-01-30T03:52:42;5.80;99.90
28336;DHT22;15592;53.656;7.276;2023-01-30T03:55:08;5.70;99.90
28336;DHT22;15592;53.656;7.276;2023-01-30T03:57:34;5.70;99.90
28336;DHT22;15592;53.656;7.276;2023-01-30T04:00:00;5.70;99.90
28336;DHT22;15592;53.656;7.276;2023-01-30T04:02:25;5.60;99.90
28336;DHT22;15592;53.656;7.276;2023-01-30T04:04:51;5.60;99.90
28336;DHT22;15592;53.656;7.276;2023-01-30T04:07:17;5.60;99.90
28336;DHT22;15592;53.656;7.276;2023-01-30T04:09:43;5.60;99.90
28336;DHT22;15592;53.656;7.276;2023-01-30T04:12:09;5.60;99.90
28336;DHT22;15592;53.656;7.276;2023-01-30T04:14:34;5.60;99.90
28336;DHT22;15592;53.656;7.276;2023-01-30T04:17:00;5.60;99.90
28336;DHT22;15592;53.656;7.276;2023-01-30T04:19:26;5.70;99.90
28336;DHT22;15592;53.656;7.276;2023-01-30T04:21:51;5.70;99.90
28336;DHT22;15592;53.656;7.276;2023-01-30T04:24:17;5.70;99.90
28336;DHT22;15592;53.656;7.276;2023-01-30T04:26:42;5.70;99.90
28336;DHT22;15592;53.656;7.276;2023-01-30T04:29:08;5.70;99.90
28336;DHT22;15592;53.656;7.276;2023-01-30T04:31:33;5.70;99.90
28336;DHT22;15592;53.656;7.276;2023-01-30T04:33:59;5.70;99.90
28336;DHT22;15592;53.656;7.276;2023-01-30T04:36:25;5.70;99.90
28336;DHT22;15592;53.656;7.276;2023-01-30T04:38:50;5.60;99.90
28336;DHT22;15592;53.656;7.276;2023-01-30T04:41:16;5.60;99.90
28336;DHT22;15592;53.656;7.276;2023-01-30T04:43:41;5.60;99.90
28336;DHT22;15592;53.656;7.276;2023-01-30T04:46:07;5.60;99.90
28336;DHT22;15592;53.656;7.276;2023-01-30T04:48:32;5.70;99.90
28336;DHT22;15592;53.656;7.276;2023-01-30T04:50:58;5.70;99.90
28336;DHT22;15592;53.656;7.276;2023-01-30T04:53:24;5.70;99.90
28336;DHT22;15592;53.656;7.276;2023-01-30T04:55:51;5.80;99.90
28336;DHT22;15592;53.656;7.276;2023-01-30T04:58:17;5.80;99.90
28336;DHT22;15592;53.656;7.276;2023-01-30T05:00:46;5.70;99.90
28336;DHT22;15592;53.656;7.276;2023-01-30T05:03:11;5.70;99.90
28336;DHT22;15592;53.656;7.276;2023-01-30T05:05:37;5.70;99.90
28336;DHT22;15592;53.656;7.276;2023-01-30T05:08:03;5.70;99.90
28336;DHT22;15592;53.656;7.276;2023-01-30T05:10:29;5.70;99.90
28336;DHT22;15592;53.656;7.276;2023-01-30T05:12:54;5.60;99.90
28336;DHT22;15592;53.656;7.276;2023-01-30T05:15:20;5.60;99.90
28336;DHT22;15592;53.656;7.276;2023-01-30T05:17:45;5.60;99.90
28336;DHT22;15592;53.656;7.276;2023-01-30T05:20:12;5.60;99.90
28336;DHT22;15592;53.656;7.276;2023-01-30T05:22:38;5.60;99.90
28336;DHT22;15592;53.656;7.276;2023-01-30T05:25:03;5.50;99.90
28336;DHT22;15592;53.656;7.276;2023-01-30T05:27:29;5.50;99.90
28336;DHT22;15592;53.656;7.276;2023-01-30T05:29:55;5.50;99.90
28336;DHT22;15592;53.656;7.276;2023-01-30T05:32:20;5.60;99.90
28336;DHT22;15592;53.656;7.276;2023-01-30T05:34:47;5.60;99.90
28336;DHT22;15592;53.656;7.276;2023-01-30T05:37:14;5.60;99.90
28336;DHT22;15592;53.656;7.276;2023-01-30T05:39:40;5.60;99.90
28336;DHT22;15592;53.656;7.276;2023-01-30T05:42:05;5.60;99.90
28336;DHT22;15592;53.656;7.276;2023-01-30T05:44:31;5.60;99.90
28336;DHT22;15592;53.656;7.276;2023-01-30T05:46:57;5.60;99.90
28336;DHT22;15592;53.656;7.276;2023-01-30T05:49:22;5.60;99.90
28336;DHT22;15592;53.656;7.276;2023-01-30T05:51:48;5.60;99.90
28336;DHT22;15592;53.656;7.276;2023-01-30T05:54:14;5.60;99.90
28336;DHT22;15592;53.656;7.276;2023-01-30T05:56:40;5.60;99.90
28336;DHT22;15592;53.656;7.276;2023-01-30T05:59:06;5.60;99.90
28336;DHT22;15592;53.656;7.276;2023-01-30T06:01:31;5.60;99.90
28336;DHT22;15592;53.656;7.276;2023-01-30T06:03:57;5.60;99.90
28336;DHT22;15592;53.656;7.276;2023-01-30T06:06:23;5.50;99.90
28336;DHT22;15592;53.656;7.276;2023-01-30T06:08:53;5.50;99.90
28336;DHT22;15592;53.656;7.276;2023-01-30T06:11:20;5.50;99.90
28336;DHT22;15592;53.656;7.276;2023-01-30T06:13:45;5.50;99.90
28336;DHT22;15592;53.656;7.276;2023-01-30T06:16:12;5.50;99.90
28336;DHT22;15592;53.656;7.276;2023-01-30T06:18:39;5.60;99.90
28336;DHT22;15592;53.656;7.276;2023-01-30T06:21:05;5.60;99.90
28336;DHT22;15592;53.656;7.276;2023-01-30T06:23:31;5.60;99.90
28336;DHT22;15592;53.656;7.276;2023-01-30T06:25:57;5.60;99.90
28336;DHT22;15592;53.656;7.276;2023-01-30T06:28:24;5.50;99.90
28336;DHT22;15592;53.656;7.276;2023-01-30T06:30:50;5.60;99.90
28336;DHT22;15592;53.656;7.276;2023-01-30T06:33:16;5.60;99.90
28336;DHT22;15592;53.656;7.276;2023-01-30T06:35:43;5.60;99.90
28336;DHT22;15592;53.656;7.276;2023-01-30T06:38:10;5.60;99.90
28336;DHT22;15592;53.656;7.276;2023-01-30T06:40:40;5.50;99.90
28336;DHT22;15592;53.656;7.276;2023-01-30T06:43:06;5.60;99.90
28336;DHT22;15592;53.656;7.276;2023-01-30T06:45:32;5.60;99.90
28336;DHT22;15592;53.656;7.276;2023-01-30T06:47:57;5.60;99.90
28336;DHT22;15592;53.656;7.276;2023-01-30T06:50:25;5.60;99.90
28336;DHT22;15592;53.656;7.276;2023-01-30T06:52:52;5.60;99.90
28336;DHT22;15592;53.656;7.276;2023-01-30T06:55:19;5.70;99.90
28336;DHT22;15592;53.656;7.276;2023-01-30T06:57:46;5.70;99.90
28336;DHT22;15592;53.656;7.276;2023-01-30T07:00:14;5.70;99.90
28336;DHT22;15592;53.656;7.276;2023-01-30T07:02:41;5.70;99.90
28336;DHT22;15592;53.656;7.276;2023-01-30T07:05:07;5.70;99.90
28336;DHT22;15592;53.656;7.276;2023-01-30T07:07:34;5.70;99.90
28336;DHT22;15592;53.656;7.276;2023-01-30T07:10:00;5.60;99.90
28336;DHT22;15592;53.656;7.276;2023-01-30T07:12:26;5.60;99.90
28336;DHT22;15592;53.656;7.276;2023-01-30T07:14:54;5.60;99.90
28336;DHT22;15592;53.656;7.276;2023-01-30T07:17:21;5.60;99.90
28336;DHT22;15592;53.656;7.276;2023-01-30T07:19:47;5.60;99.90
28336;DHT22;15592;53.656;7.276;2023-01-30T07:22:13;5.60;99.90
28336;DHT22;15592;53.656;7.276;2023-01-30T07:24:39;5.60;99.90
28336;DHT22;15592;53.656;7.276;2023-01-30T07:27:12;5.70;99.90
28336;DHT22;15592;53.656;7.276;2023-01-30T07:29:38;5.70;99.90
28336;DHT22;15592;53.656;7.276;2023-01-30T07:32:05;5.70;99.90
28336;DHT22;15592;53.656;7.276;2023-01-30T07:34:32;5.70;99.90
28336;DHT22;15592;53.656;7.276;2023-01-30T07:36:57;5.70;99.90
28336;DHT22;15592;53.656;7.276;2023-01-30T07:39:23;5.80;99.90
28336;DHT22;15592;53.656;7.276;2023-01-30T07:41:49;5.80;99.90
28336;DHT22;15592;53.656;7.276;2023-01-30T07:44:14;5.80;99.90
28336;DHT22;15592;53.656;7.276;2023-01-30T07:46:40;5.80;99.90
28336;DHT22;15592;53.656;7.276;2023-01-30T07:49:06;5.80;99.90
28336;DHT22;15592;53.656;7.276;2023-01-30T07:51:33;5.90;99.90
28336;DHT22;15592;53.656;7.276;2023-01-30T07:53:59;5.90;99.90
28336;DHT22;15592;53.656;7.276;2023-01-30T07:56:26;5.90;99.90
28336;DHT22;15592;53.656;7.276;2023-01-30T07:58:53;5.90;99.90
28336;DHT22;15592;53.656;7.276;2023-01-30T08:01:19;5.90;99.90
28336;DHT22;15592;53.656;7.276;2023-01-30T08:03:44;5.90;99.90
28336;DHT22;15592;53.656;7.276;2023-01-30T08:06:11;5.90;99.90
28336;DHT22;15592;53.656;7.276;2023-01-30T08:08:38;5.90;99.90
28336;DHT22;15592;53.656;7.276;2023-01-30T08:11:04;5.90;99.90
28336;DHT22;15592;53.656;7.276;2023-01-30T08:13:29;5.90;99.90
28336;DHT22;15592;53.656;7.276;2023-01-30T08:15:58;5.90;99.90
28336;DHT22;15592;53.656;7.276;2023-01-30T08:18:24;5.90;99.90
28336;DHT22;15592;53.656;7.276;2023-01-30T08:20:50;5.90;99.90
28336;DHT22;15592;53.656;7.276;2023-01-30T08:23:15;5.90;99.90
28336;DHT22;15592;53.656;7.276;2023-01-30T08:25:41;5.90;99.90
28336;DHT22;15592;53.656;7.276;2023-01-30T08:28:07;6.00;99.90
28336;DHT22;15592;53.656;7.276;2023-01-30T08:30:32;6.00;99.90
28336;DHT22;15592;53.656;7.276;2023-01-30T08:32:58;6.00;99.90
28336;DHT22;15592;53.656;7.276;2023-01-30T08:35:23;6.00;99.90
28336;DHT22;15592;53.656;7.276;2023-01-30T08:37:49;6.00;99.90
28336;DHT22;15592;53.656;7.276;2023-01-30T08:40:15;6.10;99.90
28336;DHT22;15592;53.656;7.276;2023-01-30T08:42:43;6.10;99.90
28336;DHT22;15592;53.656;7.276;2023-01-30T08:45:10;6.00;99.90
28336;DHT22;15592;53.656;7.276;2023-01-30T08:47:36;6.10;99.90
28336;DHT22;15592;53.656;7.276;2023-01-30T08:50:02;6.10;99.90
28336;DHT22;15592;53.656;7.276;2023-01-30T08:52:28;6.10;99.90
28336;DHT22;15592;53.656;7.276;2023-01-30T08:54:53;6.10;99.90
28336;DHT22;15592;53.656;7.276;2023-01-30T08:57:19;6.10;99.90
28336;DHT22;15592;53.656;7.276;2023-01-30T08:59:44;6.10;99.90
28336;DHT22;15592;53.656;7.276;2023-01-30T09:02:11;6.10;99.90
28336;DHT22;15592;53.656;7.276;2023-01-30T09:04:37;6.20;99.90
28336;DHT22;15592;53.656;7.276;2023-01-30T09:07:03;6.20;99.90
28336;DHT22;15592;53.656;7.276;2023-01-30T09:09:29;6.20;99.90
28336;DHT22;15592;53.656;7.276;2023-01-30T09:11:55;6.20;99.90
28336;DHT22;15592;53.656;7.276;2023-01-30T09:14:20;6.20;99.90
28336;DHT22;15592;53.656;7.276;2023-01-30T09:16:47;6.20;99.90
28336;DHT22;15592;53.656;7.276;2023-01-30T09:19:13;6.20;99.90
28336;DHT22;15592;53.656;7.276;2023-01-30T09:21:38;6.20;99.90
28336;DHT22;15592;53.656;7.276;2023-01-30T09:24:04;6.30;99.90
28336;DHT22;15592;53.656;7.276;2023-01-30T09:26:30;6.30;99.90
28336;DHT22;15592;53.656;7.276;2023-01-30T09:28:56;6.30;99.90
28336;DHT22;15592;53.656;7.276;2023-01-30T09:31:22;6.30;99.90
28336;DHT22;15592;53.656;7.276;2023-01-30T09:33:47;6.30;99.90
28336;DHT22;15592;53.656;7.276;2023-01-30T09:36:13;6.30;99.90
28336;DHT22;15592;53.656;7.276;2023-01-30T09:38:38;6.30;99.90
28336;DHT22;15592;53.656;7.276;2023-01-30T09:44:07;6.30;99.90
28336;DHT22;15592;53.656;7.276;2023-01-30T09:47:30;6.40;99.90
28336;DHT22;15592;53.656;7.276;2023-01-30T09:49:59;6.50;99.90
28336;DHT22;15592;53.656;7.276;2023-01-30T09:52:38;6.50;99.90
28336;DHT22;15592;53.656;7.276;2023-01-30T09:55:23;6.50;99.90
28336;DHT22;15592;53.656;7.276;2023-01-30T09:57:50;6.50;99.90
28336;DHT22;15592;53.656;7.276;2023-01-30T10:00:23;6.50;99.90
28336;DHT22;15592;53.656;7.276;2023-01-30T10:05:58;6.40;99.90
28336;DHT22;15592;53.656;7.276;2023-01-30T10:09:05;6.40;99.90
28336;DHT22;15592;53.656;7.276;2023-01-30T10:12:22;6.40;99.90
28336;DHT22;15592;53.656;7.276;2023-01-30T10:24:13;6.80;99.90
28336;DHT22;15592;53.656;7.276;2023-01-30T10:26:43;6.90;99.90
28336;DHT22;15592;53.656;7.276;2023-01-30T10:29:17;6.90;99.90
28336;DHT22;15592;53.656;7.276;2023-01-30T10:31:57;6.90;99.90
28336;DHT22;15592;53.656;7.276;2023-01-30T10:34:38;6.80;99.90
28336;DHT22;15592;53.656;7.276;2023-01-30T10:40:17;6.60;99.90
28336;DHT22;15592;53.656;7.276;2023-01-30T10:50:58;6.70;99.90
28336;DHT22;15592;53.656;7.276;2023-01-30T10:53:36;6.70;99.90
28336;DHT22;15592;53.656;7.276;2023-01-30T10:57:03;6.80;99.90
28336;DHT22;15592;53.656;7.276;2023-01-30T10:59:26;6.90;99.90
28336;DHT22;15592;53.656;7.276;2023-01-30T11:02:12;7.00;99.90
28336;DHT22;15592;53.656;7.276;2023-01-30T11:04:58;7.10;99.90
28336;DHT22;15592;53.656;7.276;2023-01-30T11:07:30;7.10;99.90
28336;DHT22;15592;53.656;7.276;2023-01-30T11:09:57;7.20;99.90
28336;DHT22;15592;53.656;7.276;2023-01-30T11:12:23;7.30;99.90
28336;DHT22;15592;53.656;7.276;2023-01-30T11:14:59;7.30;99.90
28336;DHT22;15592;53.656;7.276;2023-01-30T11:17:36;7.40;99.90
28336;DHT22;15592;53.656;7.276;2023-01-30T11:20:14;7.50;99.90
28336;DHT22;15592;53.656;7.276;2023-01-30T11:22:51;7.60;99.90
28336;DHT22;15592;53.656;7.276;2023-01-30T11:25:21;7.60;99.90
28336;DHT22;15592;53.656;7.276;2023-01-30T11:28:11;7.50;99.90
28336;DHT22;15592;53.656;7.276;2023-01-30T11:30:37;7.40;99.90
28336;DHT22;15592;53.656;7.276;2023-01-30T11:33:14;7.30;99.90
28336;DHT22;15592;53.656;7.276;2023-01-30T11:36:01;7.20;99.90
28336;DHT22;15592;53.656;7.276;2023-01-30T11:38:29;7.00;99.90
28336;DHT22;15592;53.656;7.276;2023-01-30T11:43:37;6.80;99.90
28336;DHT22;15592;53.656;7.276;2023-01-30T11:46:07;6.80;99.90
28336;DHT22;15592;53.656;7.276;2023-01-30T11:48:38;6.80;99.90
28336;DHT22;15592;53.656;7.276;2023-01-30T11:51:08;6.90;99.90
28336;DHT22;15592;53.656;7.276;2023-01-30T11:53:47;6.90;99.90
28336;DHT22;15592;53.656;7.276;2023-01-30T11:56:35;6.90;99.90
28336;DHT22;15592;53.656;7.276;2023-01-30T11:59:25;6.90;99.90
28336;DHT22;15592;53.656;7.276;2023-01-30T12:02:02;6.90;99.90
28336;DHT22;15592;53.656;7.276;2023-01-30T12:04:28;6.90;99.90
28336;DHT22;15592;53.656;7.276;2023-01-30T12:07:20;7.00;99.90
28336;DHT22;15592;53.656;7.276;2023-01-30T12:09:46;7.00;99.90
28336;DHT22;15592;53.656;7.276;2023-01-30T12:12:36;7.00;99.90
28336;DHT22;15592;53.656;7.276;2023-01-30T12:15:27;7.00;99.90
28336;DHT22;15592;53.656;7.276;2023-01-30T12:28:39;7.10;99.90
28336;DHT22;15592;53.656;7.276;2023-01-30T12:31:15;7.20;99.90
28336;DHT22;15592;53.656;7.276;2023-01-30T12:33:43;7.30;99.90
28336;DHT22;15592;53.656;7.276;2023-01-30T12:47:44;7.30;99.90
28336;DHT22;15592;53.656;7.276;2023-01-30T12:50:20;7.30;99.90
28336;DHT22;15592;53.656;7.276;2023-01-30T12:53:14;7.20;99.90
28336;DHT22;15592;53.656;7.276;2023-01-30T12:58:46;7.20;99.90
28336;DHT22;15592;53.656;7.276;2023-01-30T13:06:47;7.20;99.90
28336;DHT22;15592;53.656;7.276;2023-01-30T13:12:22;7.20;99.90
28336;DHT22;15592;53.656;7.276;2023-01-30T13:15:04;7.20;99.90
28336;DHT22;15592;53.656;7.276;2023-01-30T13:22:59;7.20;99.90
28336;DHT22;15592;53.656;7.276;2023-01-30T13:28:14;7.20;99.90
28336;DHT22;15592;53.656;7.276;2023-01-30T13:30:43;7.20;99.90
28336;DHT22;15592;53.656;7.276;2023-01-30T13:33:13;7.20;99.90
28336;DHT22;15592;53.656;7.276;2023-01-30T13:35:46;7.20;99.90
28336;DHT22;15592;53.656;7.276;2023-01-30T13:38:21;7.20;99.90
28336;DHT22;15592;53.656;7.276;2023-01-30T13:40:49;7.20;99.90
28336;DHT22;15592;53.656;7.276;2023-01-30T13:43:21;7.20;99.90
28336;DHT22;15592;53.656;7.276;2023-01-30T13:45:50;7.20;99.90
28336;DHT22;15592;53.656;7.276;2023-01-30T14:02:24;7.20;99.90
28336;DHT22;15592;53.656;7.276;2023-01-30T14:04:54;7.20;99.90
28336;DHT22;15592;53.656;7.276;2023-01-30T14:07:30;7.20;99.90
28336;DHT22;15592;53.656;7.276;2023-01-30T14:20:48;7.00;99.90
28336;DHT22;15592;53.656;7.276;2023-01-30T14:25:54;7.00;99.90
28336;DHT22;15592;53.656;7.276;2023-01-30T14:30:52;7.00;99.90
28336;DHT22;15592;53.656;7.276;2023-01-30T14:36:28;6.90;99.90
28336;DHT22;15592;53.656;7.276;2023-01-30T14:38:38;7.00;99.90
28336;DHT22;15592;53.656;7.276;2023-01-30T15:04:30;6.40;99.90
28336;DHT22;15592;53.656;7.276;2023-01-30T15:06:58;6.40;99.90
28336;DHT22;15592;53.656;7.276;2023-01-30T15:09:26;6.40;99.90
28336;DHT22;15592;53.656;7.276;2023-01-30T15:18:00;6.60;99.90
28336;DHT22;15592;53.656;7.276;2023-01-30T15:20:46;6.60;99.90
28336;DHT22;15592;53.656;7.276;2023-01-30T15:26:25;6.60;99.90
28336;DHT22;15592;53.656;7.276;2023-01-30T15:32:01;6.30;99.90
28336;DHT22;15592;53.656;7.276;2023-01-30T15:34:28;6.20;99.90
28336;DHT22;15592;53.656;7.276;2023-01-30T15:36:55;6.10;99.90
28336;DHT22;15592;53.656;7.276;2023-01-30T15:39:25;6.00;99.90
28336;DHT22;15592;53.656;7.276;2023-01-30T15:41:52;5.90;99.90
28336;DHT22;15592;53.656;7.276;2023-01-30T15:47:24;5.90;99.90
28336;DHT22;15592;53.656;7.276;2023-01-30T15:52:39;6.00;99.90
28336;DHT22;15592;53.656;7.276;2023-01-30T15:55:19;6.00;99.90
28336;DHT22;15592;53.656;7.276;2023-01-30T15:57:53;6.10;99.90
28336;DHT22;15592;53.656;7.276;2023-01-30T16:00:28;6.10;99.90
28336;DHT22;15592;53.656;7.276;2023-01-30T16:02:54;6.20;99.90
28336;DHT22;15592;53.656;7.276;2023-01-30T16:05:23;6.20;99.90
28336;DHT22;15592;53.656;7.276;2023-01-30T16:07:51;6.20;99.90
28336;DHT22;15592;53.656;7.276;2023-01-30T16:10:22;6.10;99.90
28336;DHT22;15592;53.656;7.276;2023-01-30T16:12:50;6.10;99.90
28336;DHT22;15592;53.656;7.276;2023-01-30T16:15:40;6.10;99.90
28336;DHT22;15592;53.656;7.276;2023-01-30T16:23:27;6.00;99.90
28336;DHT22;15592;53.656;7.276;2023-01-30T16:25:53;6.00;99.90
28336;DHT22;15592;53.656;7.276;2023-01-30T16:28:24;6.10;99.90
28336;DHT22;15592;53.656;7.276;2023-01-30T16:31:04;6.00;99.90
28336;DHT22;15592;53.656;7.276;2023-01-30T16:34:04;6.00;99.90
28336;DHT22;15592;53.656;7.276;2023-01-30T16:36:39;6.00;99.90
28336;DHT22;15592;53.656;7.276;2023-01-30T16:42:24;6.00;99.90
28336;DHT22;15592;53.656;7.276;2023-01-30T16:44:50;6.00;99.90
28336;DHT22;15592;53.656;7.276;2023-01-30T16:47:24;6.00;99.90
28336;DHT22;15592;53.656;7.276;2023-01-30T16:49:59;6.00;99.90
28336;DHT22;15592;53.656;7.276;2023-01-30T16:52:36;6.00;99.90
28336;DHT22;15592;53.656;7.276;2023-01-30T16:55:07;6.00;99.90
28336;DHT22;15592;53.656;7.276;2023-01-30T16:57:53;6.00;99.90
28336;DHT22;15592;53.656;7.276;2023-01-30T17:00:27;6.00;99.90
28336;DHT22;15592;53.656;7.276;2023-01-30T17:02:58;6.00;99.90
28336;DHT22;15592;53.656;7.276;2023-01-30T17:05:40;6.00;99.90
28336;DHT22;15592;53.656;7.276;2023-01-30T17:14:18;6.00;99.90
28336;DHT22;15592;53.656;7.276;2023-01-30T17:17:01;6.00;99.90
28336;DHT22;15592;53.656;7.276;2023-01-30T17:19:27;6.00;99.90
28336;DHT22;15592;53.656;7.276;2023-01-30T17:22:05;6.10;99.90
28336;DHT22;15592;53.656;7.276;2023-01-30T17:24:32;6.10;99.90
28336;DHT22;15592;53.656;7.276;2023-01-30T17:27:01;6.10;99.90
28336;DHT22;15592;53.656;7.276;2023-01-30T17:29:28;6.10;99.90
28336;DHT22;15592;53.656;7.276;2023-01-30T17:31:55;6.10;99.90
28336;DHT22;15592;53.656;7.276;2023-01-30T17:34:24;6.10;99.90
28336;DHT22;15592;53.656;7.276;2023-01-30T17:36:51;6.10;99.90
28336;DHT22;15592;53.656;7.276;2023-01-30T17:39:23;6.10;99.90
28336;DHT22;15592;53.656;7.276;2023-01-30T17:42:04;6.00;99.90
28336;DHT22;15592;53.656;7.276;2023-01-30T17:44:30;5.90;99.90
28336;DHT22;15592;53.656;7.276;2023-01-30T17:46:55;5.90;99.90
28336;DHT22;15592;53.656;7.276;2023-01-30T17:49:22;5.90;99.90
28336;DHT22;15592;53.656;7.276;2023-01-30T17:51:49;5.90;99.90
28336;DHT22;15592;53.656;7.276;2023-01-30T17:54:15;5.90;99.90
28336;DHT22;15592;53.656;7.276;2023-01-30T17:56:43;5.90;99.90
28336;DHT22;15592;53.656;7.276;2023-01-30T17:59:18;5.90;99.90
28336;DHT22;15592;53.656;7.276;2023-01-30T18:01:45;5.90;99.90
28336;DHT22;15592;53.656;7.276;2023-01-30T18:04:11;5.90;99.90
28336;DHT22;15592;53.656;7.276;2023-01-30T18:07:15;5.90;99.90
28336;DHT22;15592;53.656;7.276;2023-01-30T18:09:54;5.90;99.90
28336;DHT22;15592;53.656;7.276;2023-01-30T18:12:23;5.90;99.90
28336;DHT22;15592;53.656;7.276;2023-01-30T18:14:48;5.90;99.90
28336;DHT22;15592;53.656;7.276;2023-01-30T18:17:14;5.90;99.90
28336;DHT22;15592;53.656;7.276;2023-01-30T18:19:39;5.90;99.90
28336;DHT22;15592;53.656;7.276;2023-01-30T18:22:14;5.90;99.90
28336;DHT22;15592;53.656;7.276;2023-01-30T18:24:55;5.90;99.90
28336;DHT22;15592;53.656;7.276;2023-01-30T18:27:23;5.90;99.90
28336;DHT22;15592;53.656;7.276;2023-01-30T18:29:49;6.00;99.90
28336;DHT22;15592;53.656;7.276;2023-01-30T18:32:14;6.00;99.90
28336;DHT22;15592;53.656;7.276;2023-01-30T18:35:04;6.00;99.90
28336;DHT22;15592;53.656;7.276;2023-01-30T18:37:30;6.00;99.90
28336;DHT22;15592;53.656;7.276;2023-01-30T18:40:13;6.00;99.90
28336;DHT22;15592;53.656;7.276;2023-01-30T18:42:39;6.00;99.90
28336;DHT22;15592;53.656;7.276;2023-01-30T18:45:06;6.00;99.90
28336;DHT22;15592;53.656;7.276;2023-01-30T18:47:34;5.90;99.90
28336;DHT22;15592;53.656;7.276;2023-01-30T18:53:13;6.00;99.90
28336;DHT22;15592;53.656;7.276;2023-01-30T18:55:47;5.90;99.90
28336;DHT22;15592;53.656;7.276;2023-01-30T18:58:14;5.90;99.90
28336;DHT22;15592;53.656;7.276;2023-01-30T19:00:40;5.90;99.90
28336;DHT22;15592;53.656;7.276;2023-01-30T19:03:38;5.90;99.90
28336;DHT22;15592;53.656;7.276;2023-01-30T19:06:10;6.00;99.90
28336;DHT22;15592;53.656;7.276;2023-01-30T19:08:36;6.00;99.90
28336;DHT22;15592;53.656;7.276;2023-01-30T19:11:06;6.00;99.90
28336;DHT22;15592;53.656;7.276;2023-01-30T19:13:51;6.00;99.90
28336;DHT22;15592;53.656;7.276;2023-01-30T19:16:18;5.90;99.90
28336;DHT22;15592;53.656;7.276;2023-01-30T19:18:44;5.80;99.90
28336;DHT22;15592;53.656;7.276;2023-01-30T19:21:09;5.80;99.90